Terminal Aerodrome Forecast
Issued by NWS

Home | Current Version | Previous Version | Text Only | Print | Product List | Glossary On
Versions: 1 2 3 4 5 6 7 8 9 10 11 12 13 14 15
000
FTUS46 KSEW 281120
TAFBLI
TAF
KBLI 281120Z 2812/2912 17005KT P6SM SCT025 BKN035
      TEMPO 2812/2815 BKN025 BKN035
     FM281600 17005KT P6SM BKN035
     FM281900 18006KT P6SM SCT040
     FM290700 16005KT P6SM SCT050 BKN200=

USA.gov is the U.S. government's official web portal to all federal, state and local government web resources and services.